Thurman, New York
Current Conditions -  °F | °C
As of 3:53 AM on Saturday 25 Oct 2014 (Local Time) from KGFL Reporting Station
Moderate Fog Moderate Fog  
Wind Chill: 38°   Ceiling: 200
Heat Index: 42°   Visibility: 0.25mi
Dew Point: 41°   Wind: 6mph
Humidity: 96%   Direction: 170°S
Pressure: 29.81"   Gusts: NA
Location:  43.4835°N, 73.8027°W
Report Text: KGFL 250753Z AUTO 17005KT 1/4SM FG VV002 06/05 A2981 RMK AO2 SLP101 T00560050
Loading
Personal Weather Stations






























Interactive Weather Map
Tropical Storm Tracking
New forecast layout! Learn more

10-Day Weather Forecast

Advertisements
Track Severe Weather on mobile